Create Custom Reports and Graphics: Custom Report

Latest Observations

Map

15 Minute Data

South County Map

Map

15 Minute Data

Latest Observation

25 Stations

15 Minute Data | America/Los_Angeles
as of 9/6/26 1:17 AM PDT
Station Date Time Temp (°F) RH (%) Dew Pt (°F) Wind Spd (mph) Wind Dir (°) Wind Gust (mph) Latest Rain (In) Daily Rain (In) Daily Min Temp (°F) Daily Max Temp (°F)
Rockpile Upper (Cooley) 9/6/26 0115 51.2   0.9 77   22 44.4   5.8 8.6   3.4 NW | 317 12.1   5.0 0.00 0.00 50.9   1.0 51.5   0.9
Rockpile Lower (Cooley) 9/6/26 0100 54.9   1.0 70   17 45.2   4.8 4.1   1.4 NW | 317 6.8   2.3 0.00 0.00 54.7   0.9 55.4   1.1
Cloverdale-East (Ranch 83) 9/6/26 0115 48.8   2.1 - - 0.1   0.2 ENE | 60 1.2   0.7 0.00 0.00 48.5   2.1 49.5   1.9
Cloverdale-SE (Ranch 38) 9/6/26 0115 56.7   0.1 69   10 46.8   3.5 0.6   5.8 ENE | 69 2.1   7.7 0.00 0.00 56.5   0.0 57.0   0.2
Geyserville-North (Hoffman) 9/6/26 0115 48.2   3.3 88   1 44.9   3.7 0.1   0.1 NE | 49 1.2   1.2 0.00 0.00 47.8   3.2 48.6   3.6
Geyserville (Ranch 3) 9/6/26 0115 49.4   2.4 85   3 45.1   3.3 0.1   0.4 NE | 34 1.2   0.6 0.00 0.00 49.2   2.1 49.7   2.3
Geyserville-East (Ranch 40) 9/6/26 0115 53.6   1.7 93   10 51.6   1.4 3.2   0.0 S | 183 6.5   0.2 0.00 0.00 53.4   1.5 53.9   1.6
Geyserville-South (Nervo Station) 9/6/26 0115 54.7   0.8 - - 0.8   0.7 SW | 225 4.1   2.3 0.00 0.00 54.1   0.7 55.1   0.7
Peterson (Ranch 09) 9/6/26 0115 48.5   0.8 87   3 44.9   1.6 0.9   0.7 ENE | 58 2.0   1.1 0.00 0.00 48.3   0.7 48.7   1.0
Crazy Creek Ranch 9/6/26 0115 47.9   2.0 91   3 45.4   2.8 0.4   0.1 SSE | 152 1.3   0.4 0.00 0.00 47.7   2.2 48.5   2.1
Whitton Ranch (201e) 9/6/26 0115 44.7   1.7 96   0 43.6   1.6 0.7   0.4 ENE | 78 1.5   0.0 0.00 0.00 44.4   1.7 44.9   2.1
Lytton East (Shop Hill Bottom) 9/6/26 0115 52.7   2.4 92   1 50.6   2.2 1.1   0.4 W | 278 2.9   0.9 0.00 0.00 52.5   2.3 52.9   2.5
Lytton East (Hill 5) 9/6/26 0115 53.5   0.0 92   3 51.3   0.9 1.4   0.7 WNW | 284 2.9   0.3 0.00 0.00 53.4   0.1 53.8   0.1
Lytton West Lower (Lew 6) 9/6/26 0115 51.4   0.7 93   2 49.5   0.1 1.0   0.5 N | 9 2.5   0.6 0.00 0.00 50.9   1.1 51.7   0.5
Lytton West Hill (23PS) 9/6/26 0115 55.0   1.1 90   1 52.2   1.5 1.0   0.2 ESE | 120 2.8   0.4 0.00 0.00 54.7   1.4 55.1   0.9
Big River 9/6/26 0115 52.4   1.2 94   1 50.6   1.4 0.5   0.9 NNW | 346 1.9   1.2 0.00 0.00 51.9   1.6 52.8   0.9
Jimtown-North (Piccolo Ranch 15) 9/6/26 0115 46.4   3.9 83   17 41.6   8.6 0.4   0.1 NNE | 22 1.5   1.5 0.00 0.00 45.9   3.9 46.8   4.2
HWY 128/Chalk Hill Rd (Landslide) 9/6/26 0100 48.1   2.0 91   3 45.7   2.8 0.0   0.1 N | 0 0.0   1.1 0.00 0.00 43.8   4.1 82.4   3.1
N Chalk Hill Rd (Ranch 63) 9/6/26 0115 46.3   2.5 92   1 44.0   2.7 0.6   0.4 WNW | 303 1.7   0.8 0.00 0.00 46.1   2.5 46.4   2.6
Newman Knights Valley 8/18/26 0015 56.2   1.8 85   4 51.7   0.4 0.8   3.5 NE | 55 2.3   5.8 0.00 0.00 55.0   1.2 88.3   0.6
Knights Valley (Bavarian Lion) 9/6/26 0115 44.7   2.3 93   2 42.9   2.7 0.1   0.3 NW | 313 1.2   0.6 0.00 0.00 44.4   2.4 45.0   2.2
Red Tail 9/6/26 0115 47.9   2.2 89   2 44.9   2.6 1.3   0.2 ENE | 74 2.2   0.7 0.00 0.00 47.6   2.2 48.3   2.1
Franz Valley (Stornetta) 9/6/26 0115 45.7   2.2 92   2 43.6   2.7 0.0   0.1 N | 0 0.0   0.7 0.00 0.00 45.5   2.3 45.9   2.2
Upper Dry Creek Valley 9/6/26 0115 48.5   10.0 88   12 45.1   5.7 0.1   2.8 W | 277 1.0   4.9 0.00 0.00 48.4   9.9 48.8   9.8
Lower Dry Creek Valley 9/6/26 0115 48.9   0.7 89   11 45.8   3.8 0.0   0.0 N | 0 0.0   0.0 0.00 0.00 48.6   0.7 49.3   0.4
Max     56.7 96 52.2 8.6 - 12.1 0.00 0.00 56.5 82.4
Avg     50.0 88 46.3 1.1 - 2.5 0.00 - - -
Min     44.7 69 41.6 0.0 - 0.0 0.00 0.00 43.8 44.9

Central Sonoma County Latest

37 Stations

15 Minute Data | America/Los_Angeles
as of 9/6/26 1:17 AM PDT
Station Date Time Temp (°F) RH (%) Dew Pt (°F) Wind Spd (mph) Wind Dir (°) Wind Gust (mph) Latest Rain (In) Daily Rain (In) Daily Max Temp (°F) Daily Min Temp (°F)
Windsor-NW (Ranch 8) 9/6/26 0115 53.4   0.4 85   1 48.9   0.1 0.0   0.0 NW | 305 0.0   0.0 0.00 0.00 53.4   0.8 52.7   1.0
Windsor-East (Ranch 16) 9/6/26 0115 48.6   1.5 93   1 46.7   1.6 0.2   0.2 ESE | 110 1.6   1.6 0.00 0.00 49.1   1.4 48.2   1.6
Mark West-North (Ranch 14) 9/6/26 0115 50.6   1.0 92   2 48.4   1.6 0.1   0.1 W | 269 0.9   0.9 0.00 0.00 50.8   1.2 50.4   0.8
Windsor-SE (Silk Rd) 9/6/26 0115 47.6   1.7 95   0 46.2   1.9 0.1   0.1 W | 276 0.7   1.3 0.00 0.00 47.9   1.8 47.4   1.9
Fulton-NW (Ranch 5) 9/6/26 0115 49.5   1.1 92   1 47.4   1.5 0.0   0.0 N | 0 0.0   0.0 0.00 0.00 50.1   0.8 49.1   1.2
Bisordi (Fulton) 9/6/26 0115 47.6   1.2 92   1 45.5   1.5 0.0   0.5 N | 0 0.0   1.0 0.00 0.00 48.4   0.9 47.6   1.1
Windsor-South (Laughlin Rd) 9/6/26 0115 52.1   0.3 91   0 49.6   0.2 - - - 0.00 0.00 52.4   0.4 51.8   0.2
Fulton-SE (Barnes Rd) 9/6/26 0115 51.7   0.1 89   2 48.6   0.8 0.0   0.0 N | 0 0.0   0.0 0.00 0.00 53.2   0.7 51.7   0.1
Fulton-SW (Ranch 21) 9/6/26 0115 48.9   1.9 91   0 46.4   2.0 0.0   0.0 N | 0 0.0   0.0 0.00 0.00 49.2   1.8 48.4   2.2
NW Santa Rosa (Piner Road) 9/6/26 0115 48.2   0.8 100   0 48.2   0.8 0.0   0.0 N | 0 0.0   0.0 0.00 0.00 49.0   0.5 47.7   0.9
River Rd South (Denner Ranch) 9/6/26 0115 48.4   0.9 0   0 -68.5   0.5 0.1   0.1 NNW | 335 0.9   0.9 - - 48.8   0.8 48.1   0.9
West Santa Rosa (LOV Vineyard) 8/26/26 0900 53.3   5.2 97   6 52.4   3.5 1.0   0.1 SW | 224 3.6   0.0 0.00 0.00 53.6   5.2 50.2   1.8
Guerneville Rd (Prokopakis) 9/6/26 0115 47.4   1.7 95   0 46.0   1.5 - - - 0.00 0.00 47.6   1.7 47.3   1.7
SunnyView Vineyard (SCWC) 9/6/26 0115 46.8   0.9 92   0 44.8   1.0 0.0   0.0 N | 0 0.0   0.0 0.00 0.00 47.2   0.7 46.5   1.2
Guerneville Rd West (Balletto) 9/6/26 0115 47.6   2.3 92   1 45.6   2.6 0.1   0.1 S | 173 0.9   0.9 0.00 0.00 48.1   2.3 47.2   2.2
Sanchietti Ranch 9/6/26 0115 47.9   2.2 92   1 45.8   2.6 0.6   0.5 WNW | 298 1.7   1.0 0.00 0.00 48.5   1.9 47.9   1.9
Occidental Rd (Sebastopol) 9/6/26 0115 47.3   2.2 100   0 47.3   2.2 0.6   0.6 NW | 311 2.0   2.0 0.00 0.00 47.6   2.2 47.1   2.2
Harper's Rest (Windsor-West) 9/6/26 0115 48.8   1.5 94   0 47.2   1.3 0.5   0.2 WSW | 249 1.8   0.4 0.00 0.00 48.9   1.6 48.6   1.5
Lower Westside Rd (Ranch 12) 9/6/26 0115 47.9   2.3 93   2 46.1   2.8 0.4   0.4 SE | 134 1.9   1.9 0.00 0.00 48.2   2.3 47.6   2.4
Guerneville (Laughlin Rd) 9/6/26 0115 48.4   1.9 95   0 47.0   2.0 0.0   0.0 N | 0 0.0   0.0 0.00 0.00 49.0   1.8 48.4   1.9
Korbel (Winery) 9/6/26 0115 50.1   2.0 95   1 48.9   2.2 0.0   0.0 N | 0 0.0   0.0 0.00 0.00 50.1   2.5 50.0   2.2
Forestville (Shone Farms) 9/6/26 0115 49.7   2.1 93   2 47.7   2.5 0.1   0.0 W | 269 1.1   0.1 0.00 0.00 50.7   2.9 49.1   2.0
Forestville-NE (Ranch 30) 9/6/26 0115 48.0   3.1 97   1 47.2   3.3 0.8   0.8 ENE | 68 2.5   2.5 0.00 0.00 48.8   2.6 47.6   3.3
Foggy Bend (Ranch 41) 9/6/26 0115 48.7   2.5 94   1 47.0   2.9 0.7   0.3 W | 274 2.1   0.5 0.00 0.00 49.2   2.2 48.2   2.8
Last Stop 9/6/26 0115 47.1   2.6 94   1 45.4   2.9 0.5   0.5 W | 277 2.1   0.3 0.00 0.00 47.9   1.8 47.1   2.1
Green Valley Vineyard 9/6/26 0115 49.1   1.4 95   2 47.7   1.8 0.1   1.2 NW | 316 1.5   1.3 0.00 0.00 49.6   1.2 48.6   1.6
Park Royal 9/6/26 0115 50.8   0.0 93   1 49.0   0.3 - - - 0.00 0.00 51.2   0.1 50.3   0.4
Merino 9/6/26 0115 47.8   0.1 98   1 47.2   0.1 0.5   0.5 WNW | 292 1.3   1.3 0.00 0.00 47.9   0.2 47.7   0.1
Green Valley (Sanchietti) 9/6/26 0115 44.4   2.6 - - - - - - - 46.2   2.4 44.1   2.6
Keefer Ranch (Green Valley) 9/6/26 0115 46.5   2.2 95   0 45.2   2.2 - - - 0.00 0.00 46.6   2.8 46.3   2.5
Graton-West (Dutton Ranch) 9/6/26 0115 46.8   3.0 100   0 46.8   3.0 0.0   0.0 E | 86 0.6   0.3 0.00 0.00 47.1   3.1 46.6   2.8
Graton-South (Mill Station Rd) 9/6/26 0115 46.1   3.2 94   1 44.5   3.5 0.0   0.0 N | 0 0.0   0.0 0.00 0.00 46.6   3.3 45.7   3.0
Occidental (Horseshoe Bend) 9/6/26 0115 52.6   0.6 90   3 49.7   1.4 - - - 0.00 0.00 52.9   0.6 52.0   1.1
Sexton Valley (Jacqueline's Blk) 9/6/26 0115 46.8   3.0 95   0 45.5   3.0 0.2   0.2 NNW | 339 1.0   0.4 0.00 0.00 47.1   2.7 46.1   3.2
Sebastopol Hills (Burnside Rd) 9/6/26 0115 51.9   2.6 95   1 50.6   2.7 0.0   0.0 N | 0 0.0   0.0 0.00 0.00 52.4   2.3 51.6   2.7
Pleasant Hill 9/6/26 0115 47.7   4.2 94   0 46.1   4.3 1.3   0.1 W | 259 2.2   0.1 0.00 0.00 47.8   4.2 47.7   4.2
Seaview/Fort Ross (Hirsch) 9/6/26 0115 54.0   2.7 71   23 44.9   4.7 3.0   0.1 NNW | 345 5.6   0.4 0.00 0.00 54.1   2.6 53.4   2.1
Max     54.0 100 50.6 3.0 - 5.6 0.00 0.00 54.1 53.4
Avg     48.8 91 43.7 0.3 - 1.1 0.00 - - -
Min     44.4 0 -68.5 0.0 - 0.0 0.00 0.00 46.2 44.1

Southern Sonoma County Latest

20 Stations

15 Minute Data
as of 9/6/26 1:17 AM PDT
Station Date Time Temp (°F) RH (%) Dew Pt (°F) Wind Spd (mph) Wind Dir (°) Wind Gust (mph) Latest Rain (In) Daily Rain (In) Daily Min Temp (°F) Daily Max Temp (°F)
Upper Rincon Valley 9/6/26 0115 51.3   0.4 84   9 46.6   3.1 1.8   0.1 NNW | 346 3.5   0.7 0.00 0.00 50.9   0.7 51.5   0.2
Lower Bennett Valley 9/6/26 0115 47.7   1.0 98   2 47.2   0.5 2.6   2.6 SSW | 206 3.5   3.5 0.00 0.00 47.4   1.0 49.0   2.0
Kenwood (Wildwood) 9/6/26 0115 46.4   5.3 94   0 44.8   5.2 0.9   1.3 NE | 51 1.8   1.4 0.00 0.00 46.1   5.2 46.8   5.2
Crane Creek (Ranch 62) 9/6/26 0115 52.2   0.1 94   1 50.6   0.4 1.5   1.1 ENE | 62 2.8   1.2 0.00 0.00 51.8   0.2 52.4   0.3
Rohnert Park-West (Stony Point) 9/6/26 0115 45.5   2.5 94   0 43.8   2.4 0.0   0.0 N | 0 0.0   0.0 0.00 0.00 45.5   2.4 46.6   2.0
Rice-Spivak Vineyard 9/6/26 0115 43.4   0.8 - - - - - - - 43.0   0.9 43.7   0.9
Cartograph Wines Base 9/6/26 0115 52.1   1.1 95   0 50.8   1.2 0.8   0.5 SSE | 151 2.7   0.4 0.00 0.00 52.1   1.1 52.6   1.3
Cartograph Wines Remote 9/6/26 0115 47.8   2.4 - - - - - - - 47.8   2.2 48.6   2.0
Penngrove (Asellus) 9/6/26 0115 47.1   2.5 95   1 45.7   2.7 0.6   0.5 NW | 310 2.0   0.9 0.00 0.00 46.8   2.4 47.7   2.5
Sonoma Valley (Bedrock) 9/6/26 0100 47.4   4.6 89   0 44.4   4.6 - - - 0.00 0.00 44.4   4.3 80.1   4.8
Sonoma-West (Arnold) 9/6/26 0115 48.4   0.5 90   1 45.7   0.9 2.1   1.7 NW | 305 3.1   1.5 0.00 0.00 47.3   1.6 48.4   1.2
Sonoma Valley HS 9/6/26 0115 51.3   0.5 98   2 50.7   0.1 0.4   0.3 WNW | 300 2.1   0.7 0.00 0.00 50.8   0.7 51.6   0.5
Sonoma East (Bundschu01) 9/6/26 0115 50.0   1.1 90   1 47.4   0.9 2.0   1.2 NNW | 339 3.1   0.7 0.00 0.00 49.2   0.5 50.9   1.7
Sonoma-SE (Napoli) 9/6/26 0115 53.0   3.0 90   0 50.2   3.0 0.9   0.7 E | 87 2.4   0.3 0.00 0.00 52.7   3.0 53.2   2.9
Schellville (Sasaki) 2/7/26 1900 53.4   2.2 88   10 49.9   1.0 3.3   1.8 SW | 225 5.8   4.0 0.00 0.00 47.0   0.8 62.8   8.4
Petaluma (Ranch 10) 9/6/26 0115 47.2   4.6 92   1 45.0   4.9 0.0   0.0 N | 0 0.0   0.0 0.00 0.00 47.0   4.3 47.6   4.7
Carneros (Ranch 71) 9/6/26 0115 55.0   0.6 91   3 52.4   0.4 3.8   2.2 NW | 312 7.1   4.7 0.00 0.00 54.9   0.4 55.2   0.7
Ricci Vineyards (Carneros) 9/6/26 0115 52.5   0.4 93   1 50.7   0.8 1.7   0.8 N | 357 2.7   0.4 0.00 0.00 52.3   0.5 52.7   0.1
Carneros Upper (Ranch 81) 9/6/26 0115 55.1   0.2 88   2 51.7   0.5 8.2   4.6 W | 269 12.0   4.7 - - 54.8   0.5 55.1   0.4
Carneros Lower (Ranch 81) 9/6/26 0115 52.9   0.3 93   3 50.8   1.3 0.5   0.5 SSE | 149 1.7   1.7 0.00 0.00 52.1   0.4 52.9   0.1
Max     55.1 98 52.4 8.2 - 12.0 0.00 0.00 54.9 80.1
Avg     49.8 92 48.1 1.7 - 3.2 0.00 - - -
Min     43.4 84 43.8 0.0 - 0.0 0.00 0.00 43.0 43.7

AQI Map

Map

Hourly Data